createdAt,value
2022-10-08T00:01:13.322Z,9.38
2022-10-08T00:03:44.611Z,9.82
2022-10-08T00:06:22.184Z,8.45
2022-10-08T00:08:51.980Z,10.23
2022-10-08T00:11:22.728Z,9.20
2022-10-08T00:13:51.073Z,7.80
2022-10-08T00:16:31.406Z,9.55
2022-10-08T00:21:31.671Z,9.50
2022-10-08T00:23:59.822Z,9.50
2022-10-08T00:26:28.220Z,9.55
2022-10-08T00:28:57.365Z,9.23
2022-10-08T00:31:27.792Z,8.85
2022-10-08T00:33:57.183Z,9.73
2022-10-08T00:36:27.141Z,9.65
2022-10-08T00:38:59.615Z,8.07
2022-10-08T00:41:29.502Z,8.18
2022-10-08T00:43:59.380Z,9.80
2022-10-08T00:46:42.504Z,10.30
2022-10-08T00:49:17.935Z,7.70
2022-10-08T00:51:49.936Z,9.32
2022-10-08T00:54:20.837Z,9.02
2022-10-08T00:56:55.201Z,7.60
2022-10-08T00:59:22.189Z,9.57
2022-10-08T01:01:49.303Z,8.55
2022-10-08T01:04:16.692Z,7.50
2022-10-08T01:07:08.276Z,9.77
2022-10-08T01:09:55.690Z,7.75
2022-10-08T01:12:52.099Z,9.95
2022-10-08T01:15:41.607Z,7.60
2022-10-08T01:18:35.223Z,10.93
2022-10-08T01:21:35.671Z,7.40
2022-10-08T01:27:06.770Z,7.95
2022-10-08T01:29:48.073Z,8.68
2022-10-08T01:32:21.363Z,7.70
2022-10-08T01:34:53.332Z,12.38
2022-10-08T01:37:29.604Z,7.15
2022-10-08T01:40:01.043Z,8.18
2022-10-08T01:42:29.160Z,7.97
2022-10-08T01:45:00.452Z,8.93
2022-10-08T01:47:31.112Z,7.38
2022-10-08T01:50:24.008Z,9.85
2022-10-08T01:52:54.829Z,9.10
2022-10-08T01:55:29.140Z,7.15
2022-10-08T01:58:01.570Z,8.70
2022-10-08T02:00:29.102Z,9.68
2022-10-08T02:02:56.307Z,6.75
2022-10-08T02:05:27.218Z,9.10
2022-10-08T02:07:55.254Z,9.50
2022-10-08T02:10:24.387Z,7.72
2022-10-08T02:12:51.386Z,8.68
2022-10-08T02:15:32.260Z,6.88
2022-10-08T02:18:12.890Z,6.55
2022-10-08T02:21:02.864Z,7.45
2022-10-08T02:23:38.108Z,8.73
2022-10-08T02:26:13.579Z,7.70
2022-10-08T02:28:54.776Z,7.85
2022-10-08T02:31:45.706Z,7.45
2022-10-08T02:34:24.003Z,8.23
2022-10-08T02:37:00.531Z,8.70
2022-10-08T02:39:30.653Z,6.97
2022-10-08T02:42:02.771Z,8.32
2022-10-08T02:44:42.265Z,8.52
2022-10-08T02:47:13.217Z,9.17
2022-10-08T02:49:44.422Z,8.35
2022-10-08T02:52:12.160Z,9.52
2022-10-08T02:54:42.653Z,8.57
2022-10-08T02:57:16.131Z,8.35
2022-10-08T02:59:43.481Z,6.75
2022-10-08T03:02:17.665Z,9.75
2022-10-08T03:04:55.704Z,7.10
2022-10-08T03:07:24.688Z,7.15
2022-10-08T03:09:53.433Z,9.50
2022-10-08T03:12:20.586Z,5.90
2022-10-08T03:14:50.036Z,9.02
2022-10-08T03:17:23.840Z,7.83
2022-10-08T03:19:51.813Z,6.00
2022-10-08T03:22:19.324Z,10.77
2022-10-08T03:24:46.348Z,6.32
2022-10-08T03:27:13.823Z,9.35
2022-10-08T03:29:41.019Z,5.38
2022-10-08T03:32:08.992Z,7.43
2022-10-08T03:34:36.067Z,7.50
2022-10-08T03:37:03.213Z,9.77
2022-10-08T03:39:30.308Z,6.40
2022-10-08T03:41:57.340Z,8.77
2022-10-08T03:44:24.411Z,6.10
2022-10-08T03:46:51.433Z,6.15
2022-10-08T03:49:18.508Z,9.20
2022-10-08T03:51:45.692Z,5.82
2022-10-08T03:54:12.773Z,9.02
2022-10-08T03:56:39.834Z,7.53
2022-10-08T03:59:06.791Z,6.68
2022-10-08T04:01:33.887Z,7.30
2022-10-08T04:04:00.924Z,8.32
2022-10-08T04:06:28.035Z,8.43
2022-10-08T04:09:00.946Z,7.32
2022-10-08T04:11:29.203Z,6.80
2022-10-08T04:13:56.224Z,6.85
2022-10-08T04:16:23.249Z,7.85
2022-10-08T04:18:50.336Z,6.80
2022-10-08T04:21:19.237Z,7.20
2022-10-08T04:23:46.850Z,7.10
2022-10-08T04:26:14.950Z,5.20
2022-10-08T04:28:48.275Z,5.10
2022-10-08T04:31:18.065Z,6.15
2022-10-08T04:33:46.551Z,7.32
2022-10-08T04:36:16.817Z,11.52
2022-10-08T04:38:45.200Z,10.65
2022-10-08T04:41:14.875Z,6.90
2022-10-08T04:43:43.377Z,7.88
2022-10-08T04:46:13.228Z,7.50
2022-10-08T04:48:45.169Z,6.80
2022-10-08T04:51:12.163Z,6.93
2022-10-08T04:53:39.297Z,6.18
2022-10-08T04:56:19.623Z,7.95
2022-10-08T05:01:17.071Z,7.93
2022-10-08T05:03:47.043Z,9.75
2022-10-08T05:06:17.847Z,5.53
2022-10-08T05:08:45.793Z,6.30
2022-10-08T05:11:14.005Z,7.15
2022-10-08T05:13:41.757Z,6.10
2022-10-08T05:16:11.930Z,7.25
2022-10-08T05:18:40.348Z,7.85
2022-10-08T05:21:10.377Z,10.02
2022-10-08T05:23:38.053Z,8.77
2022-10-08T05:26:15.819Z,8.50
2022-10-08T05:28:44.336Z,11.73
2022-10-08T05:31:11.468Z,7.43
2022-10-08T05:33:39.398Z,7.88
2022-10-08T05:36:08.685Z,9.38
2022-10-08T05:38:35.832Z,11.95
2022-10-08T05:41:11.425Z,11.30
2022-10-08T05:43:38.561Z,8.25
2022-10-08T05:46:05.988Z,10.90
2022-10-08T05:48:33.355Z,7.32
2022-10-08T05:51:16.107Z,8.52
2022-10-08T05:53:48.454Z,11.70
2022-10-08T05:56:18.212Z,7.60
2022-10-08T05:58:45.852Z,6.22
2022-10-08T06:01:22.180Z,8.48
2022-10-08T06:03:50.873Z,6.53
2022-10-08T06:06:18.490Z,9.15
2022-10-08T06:08:45.891Z,9.18
2022-10-08T06:11:13.105Z,9.88
2022-10-08T06:13:40.127Z,10.02
2022-10-08T06:16:10.485Z,9.48
2022-10-08T06:18:41.704Z,7.75
2022-10-08T06:21:11.565Z,10.73
2022-10-08T06:23:40.376Z,10.52
2022-10-08T06:26:09.810Z,9.20
2022-10-08T06:28:39.162Z,7.57
2022-10-08T06:31:07.539Z,9.13
2022-10-08T06:33:35.430Z,9.60
2022-10-08T06:36:08.601Z,9.07
2022-10-08T06:38:35.591Z,9.88
2022-10-08T06:41:02.614Z,10.57
2022-10-08T06:43:29.702Z,9.27
2022-10-08T06:46:00.041Z,9.82
2022-10-08T06:50:59.507Z,11.07
2022-10-08T06:53:26.972Z,8.73
2022-10-08T06:56:03.075Z,8.15
2022-10-08T06:58:30.616Z,6.22
2022-10-08T07:01:13.350Z,9.15
2022-10-08T07:03:40.428Z,7.03
2022-10-08T07:06:10.098Z,6.95
2022-10-08T07:08:37.288Z,9.00
2022-10-08T07:11:10.587Z,7.45
2022-10-08T07:13:38.512Z,7.18
2022-10-08T07:16:08.302Z,5.53
2022-10-08T07:18:37.032Z,5.72
2022-10-08T07:21:05.205Z,5.28
2022-10-08T07:23:32.355Z,8.85
2022-10-08T07:26:01.794Z,4.70
2022-10-08T07:28:31.991Z,10.23
2022-10-08T07:33:30.120Z,6.63
2022-10-08T07:36:06.731Z,6.20
2022-10-08T07:38:33.754Z,6.78
2022-10-08T07:41:00.796Z,5.25
2022-10-08T07:43:27.828Z,4.15
2022-10-08T07:45:54.943Z,5.18
2022-10-08T07:48:22.006Z,7.43
2022-10-08T07:50:49.227Z,4.25
2022-10-08T07:53:16.960Z,6.22
2022-10-08T07:55:44.300Z,4.88
2022-10-08T07:58:11.319Z,5.60
2022-10-08T08:00:43.089Z,4.85
2022-10-08T08:03:14.485Z,4.82
2022-10-08T08:05:41.508Z,4.93
2022-10-08T08:08:08.502Z,4.63
2022-10-08T08:10:35.502Z,4.65
2022-10-08T08:13:02.512Z,4.38
2022-10-08T08:15:29.558Z,6.45
2022-10-08T08:17:56.629Z,6.35
2022-10-08T08:20:23.942Z,6.72
2022-10-08T08:22:51.052Z,6.07
2022-10-08T08:25:21.261Z,5.50
2022-10-08T08:27:48.320Z,4.43
2022-10-08T08:30:15.408Z,4.63
2022-10-08T08:32:42.386Z,4.45
2022-10-08T08:35:09.478Z,7.60
2022-10-08T08:37:36.503Z,5.82
2022-10-08T08:40:03.755Z,4.43
2022-10-08T08:42:50.919Z,4.97
2022-10-08T08:45:45.955Z,4.40
2022-10-08T08:48:24.989Z,4.80
2022-10-08T08:50:55.768Z,5.15
2022-10-08T08:53:23.573Z,4.13
2022-10-08T08:55:57.188Z,4.75
2022-10-08T08:58:43.316Z,4.85
2022-10-08T09:01:24.987Z,5.00
2022-10-08T09:04:23.488Z,4.53
2022-10-08T09:06:52.807Z,4.70
2022-10-08T09:09:31.962Z,4.97
2022-10-08T09:11:59.122Z,4.22
2022-10-08T09:14:36.454Z,4.18
2022-10-08T09:17:16.417Z,5.30
2022-10-08T09:19:44.045Z,4.25
2022-10-08T09:22:34.939Z,4.63
2022-10-08T09:25:06.129Z,5.47
2022-10-08T09:27:48.617Z,5.80
2022-10-08T09:30:32.444Z,6.10
2022-10-08T09:33:05.239Z,4.40
2022-10-08T09:35:34.625Z,4.85
2022-10-08T09:38:05.643Z,4.70
2022-10-08T09:40:33.337Z,4.63
2022-10-08T09:43:19.267Z,5.00
2022-10-08T09:45:48.739Z,4.85
2022-10-08T09:48:21.549Z,5.18
2022-10-08T09:51:00.532Z,5.10
2022-10-08T09:53:34.864Z,5.57
2022-10-08T09:56:05.269Z,4.85
2022-10-08T09:58:35.659Z,6.15
2022-10-08T10:01:12.463Z,4.97
2022-10-08T10:03:41.503Z,5.47
2022-10-08T10:06:08.572Z,5.25
2022-10-08T10:09:02.086Z,5.00
2022-10-08T10:11:41.954Z,6.18
2022-10-08T10:14:27.165Z,4.47
2022-10-08T10:17:00.175Z,7.22
2022-10-08T10:19:32.978Z,5.68
2022-10-08T10:22:11.057Z,6.00
2022-10-08T10:24:52.138Z,5.95
2022-10-08T10:27:42.430Z,6.45
2022-10-08T10:33:09.149Z,5.72
2022-10-08T10:35:45.127Z,5.72
2022-10-08T10:38:19.721Z,7.90
2022-10-08T10:40:55.728Z,6.95
2022-10-08T10:43:45.592Z,5.28
2022-10-08T10:46:41.974Z,5.43
2022-10-08T10:49:18.879Z,6.30
2022-10-08T10:52:25.677Z,5.30
2022-10-08T10:55:19.533Z,5.40
2022-10-08T10:58:12.949Z,5.95
2022-10-08T11:00:59.677Z,5.90
2022-10-08T11:03:52.491Z,5.85
2022-10-08T11:06:49.291Z,5.55
2022-10-08T11:09:33.552Z,6.00
2022-10-08T11:12:42.227Z,6.82
2022-10-08T11:15:34.628Z,6.00
2022-10-08T11:18:32.320Z,5.53
2022-10-08T11:21:25.964Z,5.95
2022-10-08T11:24:26.865Z,7.18
2022-10-08T11:27:33.624Z,5.88
2022-10-08T11:30:14.564Z,7.03
2022-10-08T11:32:44.637Z,5.47
2022-10-08T11:35:51.456Z,5.80
2022-10-08T11:38:26.538Z,6.05
2022-10-08T11:41:14.945Z,5.95
2022-10-08T11:43:54.771Z,5.95
2022-10-08T11:46:31.018Z,7.00
2022-10-08T11:49:19.460Z,8.23
2022-10-08T11:51:50.597Z,5.95
2022-10-08T11:54:38.697Z,5.90
2022-10-08T11:57:21.976Z,7.20
2022-10-08T12:00:00.333Z,5.82
2022-10-08T12:02:36.683Z,7.63
2022-10-08T12:05:28.081Z,6.90
2022-10-08T12:07:58.247Z,6.30
2022-10-08T12:13:27.797Z,7.70
2022-10-08T12:15:55.781Z,6.72
2022-10-08T12:18:31.338Z,10.00
2022-10-08T12:21:36.493Z,7.63
2022-10-08T12:24:23.342Z,6.88
2022-10-08T12:27:29.439Z,6.25
2022-10-08T12:30:14.488Z,5.78
2022-10-08T12:32:55.385Z,6.30
2022-10-08T12:35:36.739Z,7.75
2022-10-08T12:38:37.855Z,5.72
2022-10-08T12:41:25.811Z,6.47
2022-10-08T12:44:27.087Z,8.48
2022-10-08T12:47:25.219Z,6.80
2022-10-08T12:50:15.839Z,7.18
2022-10-08T12:52:43.104Z,6.55
2022-10-08T12:55:23.384Z,6.18
2022-10-08T12:57:52.446Z,6.07
2022-10-08T13:00:34.976Z,5.72
2022-10-08T13:03:12.194Z,6.38
2022-10-08T13:05:41.158Z,6.20
2022-10-08T13:08:38.862Z,5.72
2022-10-08T13:11:10.554Z,6.88
2022-10-08T13:13:49.617Z,6.40
2022-10-08T13:16:25.497Z,6.07
2022-10-08T13:18:58.769Z,6.38
2022-10-08T13:21:37.991Z,6.53
2022-10-08T13:24:33.104Z,6.95
2022-10-08T13:27:00.250Z,6.25
2022-10-08T13:29:29.795Z,7.97
2022-10-08T13:32:10.246Z,6.20
2022-10-08T13:34:45.866Z,8.38
2022-10-08T13:37:25.780Z,6.00
2022-10-08T13:40:00.561Z,7.97
2022-10-08T13:42:32.407Z,6.47
2022-10-08T13:45:01.248Z,6.15
2022-10-08T13:47:29.309Z,6.75
2022-10-08T13:50:02.041Z,6.10
2022-10-08T13:52:32.517Z,6.47
2022-10-08T13:57:27.819Z,6.82
2022-10-08T13:59:55.154Z,7.00
2022-10-08T14:02:22.214Z,5.57
2022-10-08T14:04:49.330Z,8.60
2022-10-08T14:07:30.265Z,5.22
2022-10-08T14:10:00.233Z,6.30
2022-10-08T14:12:30.903Z,6.80
2022-10-08T14:14:58.311Z,6.25
2022-10-08T14:17:25.482Z,6.05
2022-10-08T14:19:54.353Z,5.63
2022-10-08T14:22:21.804Z,5.80
2022-10-08T14:24:48.913Z,7.18
2022-10-08T14:27:16.012Z,5.43
2022-10-08T14:29:43.230Z,5.50
2022-10-08T14:32:11.747Z,5.97
2022-10-08T14:34:39.435Z,5.53
2022-10-08T14:37:06.910Z,6.45
2022-10-08T14:39:33.909Z,7.07
2022-10-08T14:42:00.898Z,6.13
2022-10-08T14:44:28.041Z,5.47
2022-10-08T14:46:55.148Z,6.30
2022-10-08T14:49:24.070Z,7.07
2022-10-08T14:51:51.090Z,5.95
2022-10-08T14:54:18.447Z,5.97
2022-10-08T14:56:46.914Z,6.32
2022-10-08T14:59:14.109Z,5.68
2022-10-08T15:01:41.149Z,5.93
2022-10-08T15:04:08.812Z,6.75
2022-10-08T15:06:35.835Z,6.32
2022-10-08T15:09:03.902Z,6.03
2022-10-08T15:11:30.972Z,5.25
2022-10-08T15:13:59.406Z,6.00
2022-10-08T15:16:26.557Z,5.95
2022-10-08T15:18:53.648Z,5.90
2022-10-08T15:21:20.734Z,5.82
2022-10-08T15:23:47.817Z,7.45
2022-10-08T15:26:16.626Z,6.40
2022-10-08T15:28:46.372Z,5.90
2022-10-08T15:31:16.353Z,6.88
2022-10-08T15:33:46.438Z,4.97
2022-10-08T15:36:25.982Z,6.55
2022-10-08T15:38:59.986Z,6.57
2022-10-08T15:41:29.350Z,5.90
2022-10-08T15:44:06.407Z,5.50
2022-10-08T15:46:33.359Z,5.75
2022-10-08T15:49:02.138Z,6.05
2022-10-08T15:51:30.538Z,5.85
2022-10-08T15:53:59.222Z,5.70
2022-10-08T15:56:26.780Z,5.65
2022-10-08T15:58:53.859Z,5.85
2022-10-08T16:01:22.961Z,5.30
2022-10-08T16:03:51.977Z,5.57
2022-10-08T16:06:21.336Z,5.32
2022-10-08T16:08:48.387Z,7.80
2022-10-08T16:11:25.491Z,5.90
2022-10-08T16:13:55.433Z,6.07
2022-10-08T16:16:23.106Z,5.85
2022-10-08T16:18:56.424Z,6.13
2022-10-08T16:21:23.487Z,5.85
2022-10-08T16:23:50.488Z,6.07
2022-10-08T16:26:21.003Z,6.47
2022-10-08T16:28:50.283Z,5.85
2022-10-08T16:31:18.456Z,6.67
2022-10-08T16:33:46.153Z,5.95
2022-10-08T16:36:14.688Z,6.50
2022-10-08T16:38:42.068Z,5.78
2022-10-08T16:41:27.625Z,6.13
2022-10-08T16:43:57.576Z,6.05
2022-10-08T16:46:27.015Z,5.35
2022-10-08T16:48:58.243Z,6.43
2022-10-08T16:51:29.015Z,5.78
2022-10-08T16:53:57.923Z,5.65
2022-10-08T16:56:27.454Z,5.78
2022-10-08T16:58:57.432Z,5.93
2022-10-08T17:01:25.018Z,7.10
2022-10-08T17:03:52.452Z,6.45
2022-10-08T17:06:21.406Z,6.28
2022-10-08T17:08:48.688Z,6.10
2022-10-08T17:11:16.793Z,6.90
2022-10-08T17:13:52.632Z,6.00
2022-10-08T17:16:21.443Z,5.88
2022-10-08T17:18:51.322Z,6.47
2022-10-08T17:21:18.740Z,5.85
2022-10-08T17:23:46.121Z,8.07
2022-10-08T17:26:18.999Z,6.03
2022-10-08T17:28:47.942Z,6.50
2022-10-08T17:31:20.672Z,6.63
2022-10-08T17:33:48.280Z,7.22
2022-10-08T17:36:18.072Z,5.97
2022-10-08T17:38:46.587Z,6.15
2022-10-08T17:41:16.551Z,6.50
2022-10-08T17:43:44.270Z,5.82
2022-10-08T17:46:18.121Z,6.03
2022-10-08T17:48:45.872Z,5.45
2022-10-08T17:51:16.766Z,5.68
2022-10-08T17:53:44.547Z,5.78
2022-10-08T17:56:13.718Z,7.53
2022-10-08T17:58:40.911Z,6.05
2022-10-08T18:01:14.392Z,6.40
2022-10-08T18:03:43.941Z,6.22
2022-10-08T18:06:12.240Z,6.47
2022-10-08T18:08:39.406Z,5.57
2022-10-08T18:11:08.693Z,6.07
2022-10-08T18:13:36.863Z,6.43
2022-10-08T18:16:12.930Z,6.65
2022-10-08T18:18:40.327Z,7.50
2022-10-08T18:21:11.506Z,6.00
2022-10-08T18:23:41.952Z,6.13
2022-10-08T18:26:23.725Z,8.75
2022-10-08T18:28:53.615Z,7.25
2022-10-08T18:31:21.998Z,8.30
2022-10-08T18:33:51.076Z,6.68
2022-10-08T18:36:20.983Z,7.05
2022-10-08T18:38:49.362Z,6.78
2022-10-08T18:41:25.593Z,6.60
2022-10-08T18:43:53.005Z,6.45
2022-10-08T18:46:21.888Z,9.18
2022-10-08T18:48:49.658Z,6.55
2022-10-08T18:51:20.143Z,6.80
2022-10-08T18:53:47.593Z,6.25
2022-10-08T18:56:17.543Z,7.40
2022-10-08T18:58:45.454Z,6.15
2022-10-08T19:01:18.229Z,7.93
2022-10-08T19:03:53.605Z,6.65
2022-10-08T19:06:23.120Z,6.57
2022-10-08T19:08:50.309Z,7.55
2022-10-08T19:11:19.927Z,6.97
2022-10-08T19:13:47.502Z,6.88
2022-10-08T19:16:15.587Z,6.30
2022-10-08T19:18:54.806Z,10.10
2022-10-08T19:21:23.023Z,7.43
2022-10-08T19:23:50.801Z,7.30
2022-10-08T19:26:18.729Z,6.43
2022-10-08T19:28:51.431Z,7.18
2022-10-08T19:31:28.150Z,7.63
2022-10-08T19:34:03.983Z,6.38
2022-10-08T19:36:33.667Z,6.97
2022-10-08T19:39:04.244Z,6.90
2022-10-08T19:41:32.096Z,6.43
2022-10-08T19:43:59.725Z,7.10
2022-10-08T19:46:27.397Z,7.35
2022-10-08T19:48:59.891Z,6.80
2022-10-08T19:51:28.529Z,7.00
2022-10-08T19:53:55.768Z,7.35
2022-10-08T19:56:23.345Z,7.70
2022-10-08T19:58:53.364Z,6.80
2022-10-08T20:01:23.301Z,7.03
2022-10-08T20:03:55.000Z,7.03
2022-10-08T20:06:25.151Z,7.82
2022-10-08T20:11:23.233Z,7.13
2022-10-08T20:13:51.811Z,7.60
2022-10-08T20:16:27.500Z,7.22
2022-10-08T20:19:00.451Z,7.30
2022-10-08T20:21:30.425Z,9.40
2022-10-08T20:23:57.756Z,7.90
2022-10-08T20:26:27.539Z,7.38
2022-10-08T20:29:00.264Z,8.30
2022-10-08T20:31:30.165Z,8.45
2022-10-08T20:34:13.572Z,7.75
2022-10-08T20:36:40.725Z,9.07
2022-10-08T20:39:08.101Z,8.07
2022-10-08T20:41:35.101Z,8.85
2022-10-08T20:44:04.176Z,8.75
2022-10-08T20:46:32.594Z,9.35
2022-10-08T20:49:00.012Z,10.88
2022-10-08T20:51:28.803Z,7.63
2022-10-08T20:54:02.040Z,8.48
2022-10-08T20:56:30.533Z,8.70
2022-10-08T20:58:58.458Z,8.30
2022-10-08T21:01:31.052Z,9.18
2022-10-08T21:04:00.589Z,8.65
2022-10-08T21:06:30.121Z,8.20
2022-10-08T21:08:58.982Z,8.57
2022-10-08T21:11:28.276Z,9.25
2022-10-08T21:13:55.900Z,8.68
2022-10-08T21:16:25.647Z,9.60
2022-10-08T21:18:56.340Z,8.70
2022-10-08T21:23:51.506Z,10.55
2022-10-08T21:26:25.258Z,10.20
2022-10-08T21:28:59.204Z,9.10
2022-10-08T21:31:28.183Z,9.63
2022-10-08T21:33:56.062Z,11.27
2022-10-08T21:36:25.563Z,8.70
2022-10-08T21:38:53.105Z,9.75
2022-10-08T21:41:22.558Z,8.57
2022-10-08T21:43:52.210Z,10.70
2022-10-08T21:46:22.665Z,9.50
2022-10-08T21:49:02.480Z,9.32
2022-10-08T21:51:30.760Z,9.35
2022-10-08T21:54:00.409Z,10.32
2022-10-08T21:56:30.465Z,9.57
2022-10-08T21:58:59.352Z,9.82
2022-10-08T22:01:32.184Z,11.35
2022-10-08T22:04:01.881Z,9.77
2022-10-08T22:06:31.111Z,10.07
2022-10-08T22:08:58.600Z,10.25
2022-10-08T22:11:26.229Z,10.00
2022-10-08T22:13:53.352Z,11.35
2022-10-08T22:16:21.765Z,10.02
2022-10-08T22:18:49.493Z,9.02
2022-10-08T22:21:19.535Z,9.43
2022-10-08T22:23:47.512Z,10.18
2022-10-08T22:26:18.359Z,10.25
2022-10-08T22:28:45.858Z,9.48
2022-10-08T22:31:14.485Z,11.48
2022-10-08T22:33:41.790Z,10.38
2022-10-08T22:36:12.044Z,10.10
2022-10-08T22:41:11.789Z,9.25
2022-10-08T22:43:40.014Z,10.60
2022-10-08T22:46:09.954Z,8.75
2022-10-08T22:48:37.520Z,10.30
2022-10-08T22:51:08.362Z,10.35
2022-10-08T22:53:36.145Z,11.13
2022-10-08T22:56:06.180Z,10.27
2022-10-08T22:58:34.455Z,10.38
2022-10-08T23:01:04.830Z,9.07
2022-10-08T23:06:14.540Z,10.55
2022-10-08T23:08:41.953Z,11.77
2022-10-08T23:11:09.699Z,11.82
2022-10-08T23:13:36.961Z,11.93
2022-10-08T23:16:06.988Z,9.88
2022-10-08T23:18:39.607Z,9.32
2022-10-08T23:21:12.346Z,10.50
2022-10-08T23:23:39.653Z,10.18
2022-10-08T23:26:08.372Z,12.00
2022-10-08T23:28:37.525Z,10.70
2022-10-08T23:31:07.724Z,11.82
2022-10-08T23:33:38.052Z,9.68
2022-10-08T23:38:33.969Z,11.20
2022-10-08T23:41:02.649Z,10.75
2022-10-08T23:43:34.300Z,10.38
2022-10-08T23:46:01.625Z,10.48
2022-10-08T23:48:28.671Z,10.05
2022-10-08T23:50:55.708Z,11.35
2022-10-08T23:53:23.018Z,11.30
2022-10-08T23:55:50.308Z,10.98
2022-10-08T23:58:20.592Z,10.75
